createdAt,value
2017-08-29T00:00:39.457Z,68.50
2017-08-29T00:03:40.822Z,68.60
2017-08-29T00:06:42.131Z,68.70
2017-08-29T00:09:43.479Z,68.70
2017-08-29T00:12:44.805Z,69.00
2017-08-29T00:15:46.164Z,69.00
2017-08-29T00:18:47.491Z,69.20
2017-08-29T00:21:48.839Z,69.30
2017-08-29T00:24:50.201Z,69.40
2017-08-29T00:27:51.525Z,69.40
2017-08-29T00:30:52.913Z,69.80
2017-08-29T00:33:54.325Z,70.20
2017-08-29T00:36:55.720Z,70.10
2017-08-29T00:39:57.050Z,70.10
2017-08-29T00:42:58.458Z,70.10
2017-08-29T00:45:59.778Z,70.40
2017-08-29T00:49:01.130Z,69.80
2017-08-29T00:52:02.641Z,69.70
2017-08-29T00:55:04.030Z,70.10
2017-08-29T00:58:05.597Z,70.30
2017-08-29T01:01:06.955Z,69.70
2017-08-29T01:04:08.309Z,70.50
2017-08-29T01:07:09.627Z,70.40
2017-08-29T01:10:11.036Z,70.50
2017-08-29T01:13:12.414Z,69.80
2017-08-29T01:16:13.849Z,70.00
2017-08-29T01:19:15.229Z,70.40
2017-08-29T01:22:16.638Z,70.40
2017-08-29T01:25:18.021Z,70.00
2017-08-29T01:28:19.394Z,70.20
2017-08-29T01:31:20.807Z,69.30
2017-08-29T01:34:22.208Z,69.30
2017-08-29T01:37:23.614Z,69.60
2017-08-29T01:40:24.977Z,70.70
2017-08-29T01:43:26.350Z,70.20
2017-08-29T01:46:27.710Z,70.20
2017-08-29T01:49:29.121Z,70.10
2017-08-29T01:52:30.575Z,69.40
2017-08-29T01:55:31.911Z,69.40
2017-08-29T01:58:33.332Z,69.60
2017-08-29T02:01:34.678Z,70.40
2017-08-29T02:04:36.059Z,70.30
2017-08-29T02:07:38.157Z,70.40
2017-08-29T02:10:39.524Z,70.30
2017-08-29T02:13:41.012Z,70.30
2017-08-29T02:16:42.337Z,69.80
2017-08-29T02:19:43.694Z,70.50
2017-08-29T02:22:45.026Z,70.30
2017-08-29T02:25:46.390Z,70.50
2017-08-29T02:28:47.687Z,70.60
2017-08-29T02:31:49.778Z,70.60
2017-08-29T02:34:51.183Z,70.60
2017-08-29T02:37:52.542Z,70.50
2017-08-29T02:40:54.015Z,70.40
2017-08-29T02:43:55.354Z,70.60
2017-08-29T02:46:56.713Z,70.40
2017-08-29T02:49:58.039Z,70.50
2017-08-29T02:52:59.353Z,70.70
2017-08-29T02:56:00.665Z,70.60
2017-08-29T02:59:02.022Z,70.60
2017-08-29T03:02:03.359Z,70.60
2017-08-29T03:05:04.926Z,70.70
2017-08-29T03:08:06.280Z,70.60
2017-08-29T03:11:07.581Z,70.70
2017-08-29T03:14:08.960Z,70.70
2017-08-29T03:17:10.278Z,70.80
2017-08-29T03:20:11.673Z,70.70
2017-08-29T03:23:12.983Z,70.60
2017-08-29T03:26:14.348Z,70.60
2017-08-29T03:29:15.660Z,70.90
2017-08-29T03:32:17.041Z,70.70
2017-08-29T03:35:18.433Z,70.70
2017-08-29T03:38:19.726Z,70.70
2017-08-29T03:41:21.046Z,70.80
2017-08-29T03:44:22.384Z,70.70
2017-08-29T03:47:23.722Z,71.00
2017-08-29T03:50:25.042Z,71.00
2017-08-29T03:53:26.398Z,70.90
2017-08-29T03:56:27.819Z,70.40
2017-08-29T03:59:29.178Z,71.00
2017-08-29T04:02:30.525Z,71.00
2017-08-29T04:05:31.855Z,70.90
2017-08-29T04:08:33.214Z,71.00
2017-08-29T04:11:34.565Z,70.90
2017-08-29T04:14:35.895Z,71.10
2017-08-29T04:17:37.189Z,71.10
2017-08-29T04:20:38.546Z,71.30
2017-08-29T04:23:39.843Z,71.20
2017-08-29T04:26:41.195Z,71.30
2017-08-29T04:29:42.511Z,71.40
2017-08-29T04:32:43.829Z,71.50
2017-08-29T04:35:45.196Z,71.70
2017-08-29T04:38:46.522Z,71.70
2017-08-29T04:41:47.864Z,71.70
2017-08-29T04:44:49.199Z,71.90
2017-08-29T04:47:50.539Z,71.90
2017-08-29T04:50:51.894Z,71.80
2017-08-29T04:53:53.255Z,71.80
2017-08-29T04:56:54.609Z,71.70
2017-08-29T04:59:55.981Z,72.10
2017-08-29T05:02:57.402Z,72.00
2017-08-29T05:05:58.768Z,71.80
2017-08-29T05:09:00.151Z,72.60
2017-08-29T05:12:01.482Z,72.60
2017-08-29T05:15:02.816Z,72.60
2017-08-29T05:18:04.160Z,72.80
2017-08-29T05:21:05.519Z,73.00
2017-08-29T05:24:06.956Z,72.90
2017-08-29T05:27:08.273Z,72.70
2017-08-29T05:30:09.618Z,73.00
2017-08-29T05:33:10.941Z,72.80
2017-08-29T05:36:12.352Z,72.80
2017-08-29T05:39:13.716Z,72.80
2017-08-29T05:42:15.043Z,72.80
2017-08-29T05:45:16.480Z,73.30
2017-08-29T05:48:17.822Z,73.30
2017-08-29T05:51:19.352Z,73.70
2017-08-29T05:54:20.767Z,73.90
2017-08-29T05:57:22.139Z,74.30
2017-08-29T06:00:23.472Z,73.90
2017-08-29T06:03:24.826Z,74.00
2017-08-29T06:06:26.599Z,74.00
2017-08-29T06:09:28.431Z,74.30
2017-08-29T06:12:30.325Z,74.60
2017-08-29T06:15:32.167Z,74.60
2017-08-29T06:18:34.096Z,74.70
2017-08-29T06:21:35.438Z,74.80
2017-08-29T06:24:37.578Z,75.30
2017-08-29T06:27:38.866Z,75.30
2017-08-29T06:30:40.209Z,76.10
2017-08-29T06:33:41.525Z,75.40
2017-08-29T06:36:42.948Z,75.40
2017-08-29T06:39:44.322Z,75.90
2017-08-29T06:42:45.708Z,76.30
2017-08-29T06:45:47.038Z,76.10
2017-08-29T06:48:48.463Z,75.00
2017-08-29T06:51:49.818Z,74.70
2017-08-29T06:54:51.146Z,74.30
2017-08-29T06:57:52.531Z,74.00
2017-08-29T07:00:53.823Z,73.90
2017-08-29T07:03:55.197Z,73.50
2017-08-29T07:06:56.535Z,73.60
2017-08-29T07:09:57.918Z,73.20
2017-08-29T07:12:59.457Z,73.10
2017-08-29T07:16:00.851Z,73.00
2017-08-29T07:19:02.224Z,73.50
2017-08-29T07:22:03.555Z,73.10
2017-08-29T07:25:04.974Z,73.00
2017-08-29T07:28:06.324Z,73.00
2017-08-29T07:31:07.673Z,72.50
2017-08-29T07:34:09.098Z,72.40
2017-08-29T07:37:10.529Z,72.70
2017-08-29T07:40:12.225Z,71.40
2017-08-29T07:43:13.558Z,72.00
2017-08-29T07:46:14.933Z,71.20
2017-08-29T07:49:16.276Z,71.00
2017-08-29T07:52:17.665Z,72.10
2017-08-29T07:55:19.018Z,72.00
2017-08-29T07:58:20.351Z,72.80
2017-08-29T08:01:21.732Z,72.30
2017-08-29T08:04:23.074Z,72.80
2017-08-29T08:07:24.426Z,71.50
2017-08-29T08:10:25.746Z,70.90
2017-08-29T08:13:27.137Z,73.10
2017-08-29T08:16:28.491Z,72.10
2017-08-29T08:19:29.862Z,72.00
2017-08-29T08:22:31.204Z,72.40
2017-08-29T08:25:32.578Z,73.00
2017-08-29T08:28:33.977Z,71.10
2017-08-29T08:31:35.329Z,72.80
2017-08-29T08:34:36.756Z,71.80
2017-08-29T08:37:38.099Z,71.00
2017-08-29T08:40:39.457Z,71.50
2017-08-29T08:43:40.746Z,73.40
2017-08-29T08:46:42.091Z,72.40
2017-08-29T08:49:44.035Z,71.00
2017-08-29T08:52:45.395Z,71.70
2017-08-29T08:55:47.094Z,72.50
2017-08-29T08:58:48.480Z,72.10
2017-08-29T09:01:49.847Z,73.00
2017-08-29T09:04:51.183Z,73.90
2017-08-29T09:07:52.710Z,70.90
2017-08-29T09:10:54.032Z,71.00
2017-08-29T09:13:55.382Z,71.90
2017-08-29T09:16:56.710Z,70.60
2017-08-29T09:19:58.086Z,70.80
2017-08-29T09:22:59.419Z,72.10
2017-08-29T09:26:00.830Z,71.70
2017-08-29T09:29:02.169Z,69.30
2017-08-29T09:32:03.484Z,69.70
2017-08-29T09:35:05.141Z,69.30
2017-08-29T09:38:06.457Z,69.30
2017-08-29T09:41:07.817Z,70.10
2017-08-29T09:44:09.135Z,68.60
2017-08-29T09:47:10.692Z,67.90
2017-08-29T09:50:12.027Z,67.40
2017-08-29T09:53:13.378Z,69.20
2017-08-29T09:56:14.726Z,66.40
2017-08-29T09:59:16.283Z,67.00
2017-08-29T10:02:17.649Z,65.40
2017-08-29T10:05:18.964Z,67.00
2017-08-29T10:08:20.360Z,66.10
2017-08-29T10:11:21.817Z,66.20
2017-08-29T10:14:23.141Z,63.20
2017-08-29T10:17:24.501Z,66.30
2017-08-29T10:20:25.811Z,64.60
2017-08-29T10:23:27.178Z,65.40
2017-08-29T10:26:28.463Z,63.70
2017-08-29T10:29:29.887Z,62.50
2017-08-29T10:32:31.449Z,61.30
2017-08-29T10:35:32.974Z,61.30
2017-08-29T10:38:34.438Z,62.00
2017-08-29T10:41:36.071Z,62.00
2017-08-29T10:44:37.470Z,62.00
2017-08-29T10:47:38.907Z,60.20
2017-08-29T10:50:40.309Z,61.10
2017-08-29T10:53:41.634Z,64.30
2017-08-29T10:56:42.986Z,62.70
2017-08-29T10:59:44.327Z,63.70
2017-08-29T11:02:45.683Z,62.30
2017-08-29T11:05:47.019Z,60.00
2017-08-29T11:08:48.327Z,60.40
2017-08-29T11:11:49.719Z,60.70
2017-08-29T11:14:51.385Z,63.60
2017-08-29T11:17:52.696Z,61.70
2017-08-29T11:20:54.082Z,60.30
2017-08-29T11:23:55.439Z,61.20
2017-08-29T11:26:56.820Z,60.60
2017-08-29T11:29:58.174Z,58.90
2017-08-29T11:32:59.553Z,61.50
2017-08-29T11:36:01.534Z,59.80
2017-08-29T11:39:03.035Z,59.40
2017-08-29T11:42:04.550Z,59.50
2017-08-29T11:45:05.939Z,59.80
2017-08-29T11:48:07.342Z,58.50
2017-08-29T11:51:08.701Z,58.70
2017-08-29T11:54:10.065Z,58.30
2017-08-29T11:57:11.426Z,57.80
2017-08-29T12:00:12.786Z,57.00
2017-08-29T12:03:14.217Z,55.90
2017-08-29T12:06:15.621Z,56.80
2017-08-29T12:09:17.154Z,56.90
2017-08-29T12:12:18.483Z,56.40
2017-08-29T12:15:19.858Z,57.70
2017-08-29T12:18:21.161Z,55.80
2017-08-29T12:21:22.503Z,55.90
2017-08-29T12:24:23.822Z,58.80
2017-08-29T12:27:25.206Z,56.50
2017-08-29T12:30:26.537Z,53.50
2017-08-29T12:33:27.919Z,54.90
2017-08-29T12:36:29.490Z,55.10
2017-08-29T12:39:30.832Z,55.30
2017-08-29T12:42:32.207Z,52.50
2017-08-29T12:45:33.577Z,52.10
2017-08-29T12:48:34.943Z,52.80
2017-08-29T12:51:36.283Z,53.10
2017-08-29T12:54:37.645Z,51.70
2017-08-29T12:57:39.722Z,53.50
2017-08-29T13:00:41.046Z,53.20
2017-08-29T13:03:42.534Z,50.40
2017-08-29T13:06:43.854Z,52.40
2017-08-29T13:09:45.222Z,53.60
2017-08-29T13:12:46.528Z,51.90
2017-08-29T13:15:47.927Z,50.50
2017-08-29T13:18:49.287Z,51.70
2017-08-29T13:21:50.748Z,50.70
2017-08-29T13:24:52.103Z,52.20
2017-08-29T13:27:53.495Z,53.20
2017-08-29T13:30:54.954Z,52.30
2017-08-29T13:33:56.363Z,52.10
2017-08-29T13:36:57.947Z,51.20
2017-08-29T13:39:59.380Z,51.10
2017-08-29T13:43:00.735Z,52.40
2017-08-29T13:46:02.048Z,51.80
2017-08-29T13:49:03.587Z,53.80
2017-08-29T13:52:04.942Z,50.70
2017-08-29T13:55:06.308Z,47.50
2017-08-29T13:58:07.766Z,49.60
2017-08-29T14:01:09.218Z,51.00
2017-08-29T14:04:10.619Z,49.50
2017-08-29T14:07:12.018Z,50.70
2017-08-29T14:10:13.582Z,50.30
2017-08-29T14:13:14.985Z,50.00
2017-08-29T14:16:16.424Z,51.30
2017-08-29T14:19:17.975Z,50.90
2017-08-29T14:22:19.356Z,50.10
2017-08-29T14:25:21.122Z,49.10
2017-08-29T14:28:22.562Z,48.40
2017-08-29T14:31:24.042Z,53.70
2017-08-29T14:34:25.687Z,49.50
2017-08-29T14:37:27.199Z,48.60
2017-08-29T14:40:28.674Z,49.00
2017-08-29T14:43:30.140Z,48.80
2017-08-29T14:46:50.103Z,49.70
2017-08-29T14:49:51.606Z,49.50
2017-08-29T14:52:53.072Z,46.70
2017-08-29T14:55:54.527Z,47.90
2017-08-29T14:58:56.110Z,50.10
2017-08-29T15:01:57.572Z,49.10
2017-08-29T15:04:59.183Z,49.40
2017-08-29T15:08:00.622Z,52.50
2017-08-29T15:11:02.129Z,48.70
2017-08-29T15:14:03.576Z,46.80
2017-08-29T15:17:05.095Z,49.00
2017-08-29T15:20:06.547Z,49.40
2017-08-29T15:23:08.112Z,46.90
2017-08-29T15:26:09.605Z,48.70
2017-08-29T15:29:11.047Z,50.30
2017-08-29T15:32:12.475Z,48.80
2017-08-29T15:35:13.996Z,48.50
2017-08-29T15:38:15.483Z,49.10
2017-08-29T15:41:16.988Z,48.10
2017-08-29T15:44:18.395Z,49.30
2017-08-29T15:47:19.790Z,48.30
2017-08-29T15:50:21.225Z,48.40
2017-08-29T15:53:22.791Z,47.70
2017-08-29T15:56:24.203Z,48.00
2017-08-29T15:59:25.662Z,48.10
2017-08-29T16:02:27.127Z,49.60
2017-08-29T16:05:28.586Z,48.90
2017-08-29T16:08:30.027Z,49.30
2017-08-29T16:11:31.510Z,49.80
2017-08-29T16:14:32.997Z,50.40
2017-08-29T16:17:34.572Z,49.60
2017-08-29T16:20:38.442Z,52.80
2017-08-29T16:23:41.181Z,52.70
2017-08-29T16:26:43.246Z,52.00
2017-08-29T16:29:44.719Z,53.10
2017-08-29T16:32:47.790Z,53.20
2017-08-29T16:35:51.427Z,54.70
2017-08-29T16:38:54.323Z,54.70
2017-08-29T16:41:56.884Z,56.80
2017-08-29T16:44:59.505Z,55.70
2017-08-29T16:48:02.034Z,54.20
2017-08-29T16:51:03.501Z,55.40
2017-08-29T16:54:05.682Z,57.10
2017-08-29T16:57:08.492Z,59.40
2017-08-29T17:00:10.899Z,60.40
2017-08-29T17:03:12.632Z,62.00
2017-08-29T17:06:14.225Z,62.00
2017-08-29T17:09:15.732Z,63.70
2017-08-29T17:12:17.301Z,63.50
2017-08-29T17:15:18.821Z,64.90
2017-08-29T17:18:20.246Z,66.50
2017-08-29T17:21:21.803Z,66.40
2017-08-29T17:24:23.247Z,67.40
2017-08-29T17:27:24.700Z,66.80
2017-08-29T17:30:26.215Z,66.10
2017-08-29T17:33:27.689Z,66.40
2017-08-29T17:36:29.360Z,66.70
2017-08-29T17:39:30.794Z,67.70
2017-08-29T17:42:32.262Z,67.20
2017-08-29T17:45:33.704Z,67.10
2017-08-29T17:48:35.339Z,68.20
2017-08-29T17:51:36.779Z,68.40
2017-08-29T17:54:38.239Z,67.90
2017-08-29T17:57:39.682Z,68.90
2017-08-29T18:00:41.217Z,68.80
2017-08-29T18:03:42.691Z,68.60
2017-08-29T18:06:44.142Z,68.90
2017-08-29T18:09:45.743Z,68.40
2017-08-29T18:12:47.163Z,69.80
2017-08-29T18:15:48.670Z,69.70
2017-08-29T18:18:50.136Z,70.10
2017-08-29T18:21:51.631Z,69.50
2017-08-29T18:24:53.036Z,69.20
2017-08-29T18:27:54.445Z,69.00
2017-08-29T18:30:55.845Z,69.10
2017-08-29T18:33:57.311Z,69.70
2017-08-29T18:36:58.912Z,69.60
2017-08-29T18:40:00.436Z,68.80
2017-08-29T18:43:01.904Z,69.50
2017-08-29T18:46:03.307Z,68.90
2017-08-29T18:49:04.750Z,69.60
2017-08-29T18:52:06.314Z,69.40
2017-08-29T18:55:07.852Z,68.80
2017-08-29T18:58:10.084Z,68.90
2017-08-29T19:01:11.780Z,67.80
2017-08-29T19:04:14.788Z,69.10
2017-08-29T19:07:16.292Z,69.10
2017-08-29T19:10:18.925Z,68.10
2017-08-29T19:13:20.907Z,67.30
2017-08-29T19:16:22.453Z,68.30
2017-08-29T19:19:23.910Z,67.60
2017-08-29T19:22:25.529Z,67.20
2017-08-29T19:25:26.992Z,66.70
2017-08-29T19:28:30.162Z,67.10
2017-08-29T19:31:32.175Z,66.30
2017-08-29T19:34:35.085Z,66.90
2017-08-29T19:37:36.625Z,67.30
2017-08-29T19:40:38.117Z,66.90
2017-08-29T19:43:40.530Z,67.80
2017-08-29T19:46:43.697Z,67.80
2017-08-29T19:49:45.321Z,67.40
2017-08-29T19:52:46.983Z,66.80
2017-08-29T19:55:48.860Z,67.00
2017-08-29T19:58:50.831Z,67.10
2017-08-29T20:01:53.700Z,66.30
2017-08-29T20:04:55.232Z,67.20
2017-08-29T20:07:58.135Z,67.20
2017-08-29T20:10:59.709Z,66.10
2017-08-29T20:14:01.320Z,65.40
2017-08-29T20:17:02.893Z,65.40
2017-08-29T20:20:04.531Z,67.10
2017-08-29T20:23:06.023Z,66.70
2017-08-29T20:26:07.466Z,66.60
2017-08-29T20:32:25.533Z,66.40
2017-08-29T20:35:27.000Z,66.30
2017-08-29T20:38:28.530Z,66.50
2017-08-29T20:41:30.034Z,66.30
2017-08-29T20:44:31.517Z,67.50
2017-08-29T20:47:33.032Z,67.20
2017-08-29T20:50:34.473Z,67.10
2017-08-29T20:53:35.913Z,66.00
2017-08-29T20:56:37.419Z,66.30
2017-08-29T20:59:38.880Z,67.10
2017-08-29T21:02:40.479Z,66.00
2017-08-29T21:05:41.891Z,67.10
2017-08-29T21:08:43.544Z,65.70
2017-08-29T21:11:45.026Z,67.00
2017-08-29T21:14:46.544Z,66.50
2017-08-29T21:17:48.061Z,67.30
2017-08-29T21:20:49.773Z,67.20
2017-08-29T21:23:51.250Z,67.00
2017-08-29T21:26:52.708Z,67.60
2017-08-29T21:29:54.760Z,66.70
2017-08-29T21:32:56.338Z,67.20
2017-08-29T21:35:57.903Z,66.90
2017-08-29T21:39:00.152Z,67.80
2017-08-29T21:42:01.667Z,67.50
2017-08-29T21:45:03.182Z,66.70
2017-08-29T21:48:04.731Z,67.10
2017-08-29T21:51:06.374Z,67.20
2017-08-29T21:54:07.843Z,67.30
2017-08-29T21:57:09.341Z,66.80
2017-08-29T22:00:10.855Z,67.10
2017-08-29T22:03:12.378Z,65.80
2017-08-29T22:06:13.891Z,66.40
2017-08-29T22:09:15.394Z,67.60
2017-08-29T22:12:17.019Z,66.90
2017-08-29T22:15:18.524Z,65.80
2017-08-29T22:18:20.039Z,66.30
2017-08-29T22:21:21.530Z,66.50
2017-08-29T22:24:23.049Z,65.20
2017-08-29T22:27:24.560Z,66.70
2017-08-29T22:30:26.065Z,65.50
2017-08-29T22:36:35.857Z,66.20
2017-08-29T22:39:37.373Z,64.80
2017-08-29T22:42:38.944Z,64.60
2017-08-29T22:45:40.452Z,65.40
2017-08-29T22:48:41.929Z,65.70
2017-08-29T22:51:43.504Z,65.50
2017-08-29T22:54:45.105Z,63.90
2017-08-29T22:57:46.583Z,64.90
2017-08-29T23:00:48.082Z,64.40
2017-08-29T23:03:49.552Z,65.20
2017-08-29T23:06:51.982Z,64.10
2017-08-29T23:09:53.452Z,66.90
2017-08-29T23:12:54.949Z,63.70
2017-08-29T23:15:56.404Z,63.70
2017-08-29T23:18:57.932Z,64.00
2017-08-29T23:21:59.539Z,64.50
2017-08-29T23:25:00.996Z,64.60
2017-08-29T23:28:02.484Z,62.90
2017-08-29T23:31:03.943Z,62.60
2017-08-29T23:34:05.526Z,63.80
2017-08-29T23:37:06.982Z,64.10
2017-08-29T23:40:08.469Z,63.50
2017-08-29T23:43:10.087Z,62.90
2017-08-29T23:46:11.506Z,62.00
2017-08-29T23:49:13.122Z,62.20
2017-08-29T23:52:14.575Z,61.40
2017-08-29T23:55:16.046Z,61.40
2017-08-29T23:58:17.488Z,63.70
